Time;durP1;ratioP1;P1;durP2;ratioP2;P2;SDS_P1;SDS_P2;PMS_P1;PMS_P2;Temp;Humidity;BMP_temperature;BMP_pressure;BME280_temperature;BME280_humidity;BME280_pressure;Samples;Min_cycle;Max_cycle;Signal;HPM_P1;HPM_P2
2024/01/31 00:01:22;;;;;;;4.50;0.70;;;4.60;99.90;;;;;;6312758;22;20011;-39
2024/01/31 00:03:48;;;;;;;9.40;1.15;;;4.40;99.90;;;;;;6340344;22;20339;-35
2024/01/31 00:06:14;;;;;;;7.93;0.82;;;4.30;99.90;;;;;;6313475;22;20014;-37
2024/01/31 00:08:40;;;;;;;7.47;0.93;;;4.30;99.90;;;;;;6340014;22;20149;-37
2024/01/31 00:11:08;;;;;;;7.05;0.90;;;4.30;99.90;;;;;;6339971;22;20132;-35
2024/01/31 00:13:34;;;;;;;10.13;0.68;;;4.30;99.90;;;;;;6339959;22;20064;-35
2024/01/31 00:15:59;;;;;;;7.53;0.68;;;4.20;99.90;;;;;;6312640;22;20010;-34
2024/01/31 00:18:25;;;;;;;11.98;1.50;;;4.30;99.90;;;;;;6340675;22;20053;-34
2024/01/31 00:20:51;;;;;;;7.20;0.98;;;4.30;99.90;;;;;;6339549;22;20022;-34
2024/01/31 00:23:19;;;;;;;3.95;0.63;;;4.30;99.90;;;;;;6260798;22;20127;-33
2024/01/31 00:25:45;;;;;;;9.88;0.73;;;4.40;99.90;;;;;;6339785;22;20059;-33
2024/01/31 00:28:12;;;;;;;7.30;1.13;;;4.40;99.90;;;;;;6285983;22;20014;-33
2024/01/31 00:30:38;;;;;;;11.95;1.30;;;4.50;99.90;;;;;;6339919;22;20019;-33
2024/01/31 00:33:04;;;;;;;3.80;0.45;;;4.50;99.90;;;;;;6340086;22;20092;-34
2024/01/31 00:35:30;;;;;;;3.28;0.50;;;4.50;99.90;;;;;;6339479;22;20566;-34
2024/01/31 00:37:56;;;;;;;7.28;1.45;;;4.40;99.90;;;;;;6339478;22;20019;-34
2024/01/31 00:40:22;;;;;;;11.70;0.73;;;4.40;99.90;;;;;;6312197;22;20015;-33
2024/01/31 00:42:47;;;;;;;11.65;0.65;;;4.40;99.90;;;;;;6312075;22;20308;-34
2024/01/31 00:45:14;;;;;;;2.33;0.52;;;4.30;99.90;;;;;;6339803;22;20089;-32
2024/01/31 00:47:43;;;;;;;3.17;0.40;;;4.30;99.90;;;;;;6261069;22;20011;-33
2024/01/31 00:50:10;;;;;;;7.55;0.70;;;4.30;99.90;;;;;;6339681;22;20022;-32
2024/01/31 00:52:36;;;;;;;10.23;0.90;;;4.40;99.90;;;;;;6339391;22;20450;-32
2024/01/31 00:55:02;;;;;;;6.43;0.75;;;4.40;99.90;;;;;;6339696;22;20026;-34
2024/01/31 00:57:28;;;;;;;3.45;0.50;;;4.40;99.90;;;;;;6312391;22;20022;-32
2024/01/31 00:59:53;;;;;;;7.65;0.90;;;4.40;99.90;;;;;;6339184;22;20015;-33
2024/01/31 01:02:19;;;;;;;4.57;0.60;;;4.40;99.90;;;;;;6339693;22;20019;-32
2024/01/31 01:04:45;;;;;;;5.55;0.85;;;4.40;99.90;;;;;;6339612;22;20025;-32
2024/01/31 01:07:10;;;;;;;4.70;0.80;;;4.40;99.90;;;;;;6311859;22;20022;-32
2024/01/31 01:09:36;;;;;;;4.63;0.60;;;4.40;99.90;;;;;;6311687;22;20026;-32
2024/01/31 01:12:03;;;;;;;7.18;0.65;;;4.40;99.90;;;;;;6311772;22;20019;-32
2024/01/31 01:14:28;;;;;;;6.35;0.82;;;4.20;99.90;;;;;;6339509;22;20061;-31
2024/01/31 01:16:54;;;;;;;5.50;0.52;;;4.10;99.90;;;;;;6311953;22;20019;-31
2024/01/31 01:19:20;;;;;;;6.20;0.80;;;3.90;99.90;;;;;;6339501;22;20090;-31
2024/01/31 01:21:46;;;;;;;5.35;0.85;;;3.70;99.90;;;;;;6287041;22;20023;-32
2024/01/31 01:24:11;;;;;;;7.63;0.95;;;3.50;99.90;;;;;;6339423;22;20050;-31
2024/01/31 01:26:41;;;;;;;6.30;0.45;;;3.30;99.90;;;;;;6339390;22;20010;-31
2024/01/31 01:29:07;;;;;;;9.35;0.80;;;3.10;99.90;;;;;;6311482;22;20025;-31
2024/01/31 01:31:33;;;;;;;8.15;0.70;;;3.10;99.90;;;;;;6339745;22;20018;-31
2024/01/31 01:34:01;;;;;;;6.70;1.00;;;3.10;99.90;;;;;;6339359;22;20080;-30
2024/01/31 01:36:27;;;;;;;7.40;0.77;;;3.20;99.90;;;;;;6312687;22;20335;-30
2024/01/31 01:38:53;;;;;;;7.13;0.50;;;3.30;99.90;;;;;;6311734;22;20090;-30
2024/01/31 01:41:19;;;;;;;3.88;0.45;;;3.30;99.90;;;;;;6314010;22;20454;-30
2024/01/31 01:43:47;;;;;;;3.60;0.55;;;3.40;99.90;;;;;;6341337;22;20061;-30
2024/01/31 01:46:19;;;;;;;4.88;0.77;;;3.50;99.90;;;;;;6341458;22;20089;-31
2024/01/31 01:48:45;;;;;;;7.03;0.90;;;3.30;99.90;;;;;;6314127;22;20034;-31
2024/01/31 01:51:15;;;;;;;5.38;0.68;;;3.30;99.90;;;;;;6314799;22;20446;-34
2024/01/31 01:53:41;;;;;;;5.38;1.23;;;3.30;99.90;;;;;;6342348;22;20018;-30
2024/01/31 01:56:08;;;;;;;2.25;0.43;;;3.30;99.90;;;;;;6313626;22;20465;-30
2024/01/31 01:58:36;;;;;;;5.40;1.67;;;3.30;99.90;;;;;;6340829;22;20502;-32
2024/01/31 02:01:02;;;;;;;5.22;0.68;;;3.40;99.90;;;;;;6342246;22;20094;-31
2024/01/31 02:03:32;;;;;;;5.35;0.65;;;3.40;99.90;;;;;;6341165;22;20022;-31
2024/01/31 02:05:59;;;;;;;8.43;0.73;;;3.50;99.90;;;;;;6340965;22;20015;-30
2024/01/31 02:08:27;;;;;;;8.50;0.98;;;3.50;99.90;;;;;;6341052;22;20025;-29
2024/01/31 02:10:53;;;;;;;4.32;0.45;;;3.50;99.90;;;;;;6313591;22;20015;-30
2024/01/31 02:13:18;;;;;;;3.42;0.60;;;3.50;99.90;;;;;;6341061;22;20015;-30
2024/01/31 02:15:54;;;;;;;6.43;0.95;;;3.50;99.90;;;;;;6314538;22;20025;-30
2024/01/31 02:18:25;;;;;;;6.65;0.52;;;3.50;99.90;;;;;;6341018;22;20014;-29
2024/01/31 02:20:50;;;;;;;8.23;0.55;;;3.40;99.90;;;;;;6341742;22;20018;-30
2024/01/31 02:23:16;;;;;;;7.22;0.65;;;3.40;99.90;;;;;;6340979;22;20029;-30
2024/01/31 02:25:42;;;;;;;10.00;1.13;;;3.40;99.90;;;;;;6340897;22;20015;-30
2024/01/31 02:28:08;;;;;;;6.22;0.98;;;3.30;99.90;;;;;;6340911;22;20038;-29
2024/01/31 02:30:34;;;;;;;10.55;0.70;;;3.40;99.90;;;;;;6340514;22;20050;-30
2024/01/31 02:32:59;;;;;;;8.98;0.80;;;3.30;99.90;;;;;;6340478;22;20099;-32
2024/01/31 02:35:26;;;;;;;4.22;0.65;;;3.60;99.90;;;;;;6313316;22;20015;-30
2024/01/31 02:37:51;;;;;;;3.88;0.65;;;3.30;99.90;;;;;;6341164;22;20018;-30
2024/01/31 02:40:17;;;;;;;11.13;1.17;;;3.50;99.90;;;;;;6340864;22;20017;-30
2024/01/31 02:42:43;;;;;;;11.80;1.00;;;3.40;99.90;;;;;;6312904;22;20021;-30
2024/01/31 02:45:09;;;;;;;4.47;0.50;;;3.40;99.90;;;;;;6341390;22;20019;-30
2024/01/31 02:47:36;;;;;;;5.00;0.85;;;3.50;99.90;;;;;;6340409;22;20046;-30
2024/01/31 02:50:02;;;;;;;8.40;1.42;;;3.50;99.90;;;;;;6313269;22;20018;-30
2024/01/31 02:52:28;;;;;;;8.05;0.70;;;3.50;99.90;;;;;;6341333;22;20015;-29
2024/01/31 02:54:54;;;;;;;5.95;0.65;;;3.50;99.90;;;;;;6314219;22;20015;-30
2024/01/31 02:57:20;;;;;;;7.50;1.05;;;3.50;99.90;;;;;;6340581;22;20331;-29
2024/01/31 02:59:46;;;;;;;9.32;0.90;;;3.60;99.90;;;;;;6341339;22;20131;-29
2024/01/31 03:02:15;;;;;;;4.97;0.77;;;3.60;99.90;;;;;;6262004;22;20050;-29
2024/01/31 03:04:41;;;;;;;6.50;0.90;;;3.60;99.90;;;;;;6341600;22;20300;-30
2024/01/31 03:07:06;;;;;;;4.55;0.80;;;3.70;99.90;;;;;;6340512;22;20152;-29
2024/01/31 03:09:32;;;;;;;5.43;0.70;;;3.70;99.90;;;;;;6340110;22;20014;-29
2024/01/31 03:11:58;;;;;;;10.40;1.20;;;3.80;99.90;;;;;;6262843;22;20030;-29
2024/01/31 03:14:23;;;;;;;4.68;0.82;;;3.90;99.90;;;;;;6341136;22;20397;-29
2024/01/31 03:16:49;;;;;;;3.33;0.57;;;3.90;99.90;;;;;;6312913;22;20019;-29
2024/01/31 03:19:18;;;;;;;8.55;1.08;;;4.00;99.90;;;;;;6313265;22;20019;-31
2024/01/31 03:21:43;;;;;;;6.05;0.90;;;3.90;99.90;;;;;;6340411;22;20019;-30
2024/01/31 03:24:10;;;;;;;9.85;1.55;;;3.90;99.90;;;;;;6341177;22;20363;-29
2024/01/31 03:26:35;;;;;;;4.43;0.47;;;3.90;99.90;;;;;;6341305;22;20010;-29
2024/01/31 03:29:02;;;;;;;9.23;0.75;;;4.00;99.90;;;;;;6341010;22;20015;-30
2024/01/31 03:31:28;;;;;;;5.82;0.93;;;4.00;99.90;;;;;;6340368;22;20023;-30
2024/01/31 03:33:54;;;;;;;6.95;1.30;;;4.00;99.90;;;;;;6340286;22;20097;-30
2024/01/31 03:36:20;;;;;;;5.72;0.70;;;4.10;99.90;;;;;;6341364;22;20392;-29
2024/01/31 03:38:46;;;;;;;8.30;1.35;;;4.00;99.90;;;;;;6340584;22;20051;-29
2024/01/31 03:41:11;;;;;;;7.93;1.50;;;4.10;99.90;;;;;;6340162;22;20026;-28
2024/01/31 03:43:37;;;;;;;5.30;0.93;;;4.00;99.90;;;;;;6312570;22;20026;-28
2024/01/31 03:46:06;;;;;;;7.30;1.05;;;4.00;99.90;;;;;;6286437;22;20025;-29
2024/01/31 03:48:33;;;;;;;6.55;0.63;;;4.00;99.90;;;;;;6313718;22;20102;-29
2024/01/31 03:51:00;;;;;;;5.97;0.60;;;3.90;99.90;;;;;;6312741;22;20018;-28
2024/01/31 03:53:26;;;;;;;9.13;0.57;;;3.80;99.90;;;;;;6340102;22;20026;-29
2024/01/31 03:55:52;;;;;;;14.57;1.52;;;3.70;99.90;;;;;;6340456;22;20079;-29
2024/01/31 03:58:17;;;;;;;8.65;0.70;;;3.60;99.90;;;;;;6339704;22;20475;-29
2024/01/31 04:00:44;;;;;;;4.25;0.50;;;3.40;99.90;;;;;;6286833;22;20018;-28
2024/01/31 04:03:10;;;;;;;9.20;0.65;;;3.20;99.90;;;;;;6313350;22;20311;-28
2024/01/31 04:05:36;;;;;;;5.47;0.68;;;3.20;99.90;;;;;;6286734;22;20057;-28
2024/01/31 04:08:02;;;;;;;6.03;0.52;;;3.00;99.90;;;;;;6312481;22;20097;-29
2024/01/31 04:10:27;;;;;;;8.63;0.57;;;2.70;99.90;;;;;;6340468;22;20025;-29
2024/01/31 04:12:53;;;;;;;8.70;1.10;;;2.60;99.90;;;;;;6340684;22;20015;-28
2024/01/31 04:15:19;;;;;;;7.05;0.80;;;2.50;99.90;;;;;;6340032;22;20015;-28
2024/01/31 04:17:45;;;;;;;4.45;0.80;;;2.40;99.90;;;;;;6312425;22;20018;-28
2024/01/31 04:20:11;;;;;;;4.53;0.68;;;2.30;99.90;;;;;;6339883;22;20019;-28
2024/01/31 04:22:38;;;;;;;5.30;0.85;;;2.30;99.90;;;;;;6312325;22;20014;-29
2024/01/31 04:25:04;;;;;;;5.97;0.60;;;2.40;99.90;;;;;;6286562;22;20061;-28
2024/01/31 04:27:30;;;;;;;7.15;1.10;;;2.20;99.90;;;;;;6340955;22;20091;-29
2024/01/31 04:29:56;;;;;;;6.72;0.70;;;2.20;99.90;;;;;;6286813;22;20463;-28
2024/01/31 04:32:24;;;;;;;6.07;0.60;;;2.20;99.90;;;;;;6339796;22;20058;-29
2024/01/31 04:34:51;;;;;;;6.57;0.73;;;2.20;99.90;;;;;;6339871;22;20014;-29
2024/01/31 04:37:16;;;;;;;6.60;0.80;;;2.20;99.90;;;;;;6340471;22;20015;-28
2024/01/31 04:39:43;;;;;;;10.73;1.30;;;2.40;99.90;;;;;;6340832;22;20366;-28
2024/01/31 04:42:09;;;;;;;6.88;1.02;;;2.50;99.90;;;;;;6339792;22;20094;-28
2024/01/31 04:44:35;;;;;;;5.82;0.90;;;2.50;99.90;;;;;;6312056;22;20198;-28
2024/01/31 04:47:01;;;;;;;6.78;1.02;;;2.50;99.90;;;;;;6311691;22;20423;-28
2024/01/31 04:49:27;;;;;;;6.95;0.68;;;2.50;99.90;;;;;;6286577;22;20046;-29
2024/01/31 04:51:53;;;;;;;9.15;1.30;;;2.40;99.90;;;;;;6313148;22;20311;-29
2024/01/31 04:54:19;;;;;;;4.72;0.60;;;2.40;99.90;;;;;;6339654;22;20091;-28
2024/01/31 04:56:44;;;;;;;7.13;1.13;;;2.30;99.90;;;;;;6339667;22;20019;-28
2024/01/31 04:59:10;;;;;;;12.63;0.75;;;2.30;99.90;;;;;;6339212;22;20438;-28
2024/01/31 05:01:36;;;;;;;6.38;1.38;;;2.40;99.90;;;;;;6339593;22;20450;-28
2024/01/31 05:04:03;;;;;;;5.82;0.60;;;2.40;99.90;;;;;;6311927;22;20026;-28
2024/01/31 05:06:28;;;;;;;5.40;0.60;;;2.40;99.90;;;;;;6339443;22;20022;-29
2024/01/31 05:08:54;;;;;;;6.70;0.73;;;2.40;99.90;;;;;;6313032;22;20014;-28
2024/01/31 05:11:20;;;;;;;2.15;0.35;;;2.50;99.90;;;;;;6311898;22;20042;-28
2024/01/31 05:13:45;;;;;;;5.53;0.57;;;2.60;99.90;;;;;;6339814;22;20382;-28
2024/01/31 05:16:11;;;;;;;8.18;1.38;;;2.60;99.90;;;;;;6339493;22;20072;-29
2024/01/31 05:18:37;;;;;;;14.85;1.88;;;2.50;99.90;;;;;;6339496;22;20093;-28
2024/01/31 05:21:03;;;;;;;4.60;0.75;;;2.70;99.90;;;;;;6311933;22;20430;-28
2024/01/31 05:23:29;;;;;;;3.28;0.50;;;2.70;99.90;;;;;;6286136;22;20026;-28
2024/01/31 05:25:54;;;;;;;7.53;0.88;;;2.70;99.90;;;;;;6312726;22;20318;-28
2024/01/31 05:28:20;;;;;;;3.17;0.90;;;2.80;99.90;;;;;;6340126;22;20383;-28
2024/01/31 05:30:47;;;;;;;5.78;0.90;;;3.00;99.90;;;;;;6339391;22;20023;-28
2024/01/31 05:33:13;;;;;;;5.35;0.63;;;2.80;99.90;;;;;;6339519;22;20015;-28
2024/01/31 05:35:38;;;;;;;5.60;0.60;;;2.90;99.90;;;;;;6340122;22;20026;-29
2024/01/31 05:38:05;;;;;;;9.50;0.82;;;2.90;99.90;;;;;;6339793;22;20019;-28
2024/01/31 05:40:31;;;;;;;5.32;0.95;;;3.00;99.90;;;;;;6340034;22;20323;-28
2024/01/31 05:42:57;;;;;;;5.80;1.02;;;3.00;99.90;;;;;;6339466;22;20015;-29
2024/01/31 05:45:27;;;;;;;7.38;1.13;;;3.00;99.90;;;;;;6311473;22;20093;-30
2024/01/31 05:47:52;;;;;;;14.93;1.60;;;3.10;99.90;;;;;;6312288;22;20019;-28
2024/01/31 05:50:18;;;;;;;9.63;1.20;;;3.10;99.90;;;;;;6311751;22;20018;-29
2024/01/31 05:52:44;;;;;;;9.02;1.00;;;3.10;99.90;;;;;;6339254;22;20083;-29
2024/01/31 05:55:14;;;;;;;6.07;1.08;;;3.20;99.90;;;;;;6311915;22;20327;-29
2024/01/31 05:57:40;;;;;;;4.78;1.08;;;3.20;99.90;;;;;;6311687;22;20023;-28
2024/01/31 06:00:09;;;;;;;3.80;1.10;;;3.20;99.90;;;;;;6340282;22;20021;-28
2024/01/31 06:02:35;;;;;;;8.52;1.20;;;3.20;99.90;;;;;;6286622;22;20050;-28
2024/01/31 06:05:01;;;;;;;7.13;1.40;;;3.20;99.90;;;;;;6339245;22;20019;-29
2024/01/31 06:07:26;;;;;;;9.40;1.27;;;3.20;99.90;;;;;;6339143;22;20073;-28
2024/01/31 06:09:52;;;;;;;6.97;1.02;;;3.30;99.90;;;;;;6339228;22;20014;-28
2024/01/31 06:12:18;;;;;;;8.70;1.60;;;3.20;99.90;;;;;;6311757;22;20147;-28
2024/01/31 06:14:43;;;;;;;7.28;1.13;;;3.20;99.90;;;;;;6339133;22;20438;-29
2024/01/31 06:17:09;;;;;;;7.97;1.13;;;3.20;99.90;;;;;;6285675;22;20025;-28
2024/01/31 06:19:35;;;;;;;10.88;1.35;;;3.20;99.90;;;;;;6338710;22;20019;-28
2024/01/31 06:22:01;;;;;;;5.55;1.20;;;3.10;99.90;;;;;;6339118;22;20015;-28
2024/01/31 06:24:27;;;;;;;7.38;1.38;;;3.20;99.90;;;;;;6339157;22;20015;-28
2024/01/31 06:26:53;;;;;;;13.02;1.33;;;3.10;99.90;;;;;;6313175;22;20079;-28
2024/01/31 06:29:19;;;;;;;8.50;1.40;;;3.00;99.90;;;;;;6340844;22;20019;-28
2024/01/31 06:31:48;;;;;;;8.52;1.55;;;3.00;99.90;;;;;;6341587;22;20032;-28
2024/01/31 06:34:15;;;;;;;6.68;1.77;;;3.00;99.90;;;;;;6340801;22;20014;-29
2024/01/31 06:36:41;;;;;;;9.82;1.10;;;2.90;99.90;;;;;;6287886;22;20019;-28
2024/01/31 06:39:06;;;;;;;6.88;1.02;;;3.00;99.90;;;;;;6340850;22;20017;-28
2024/01/31 06:41:35;;;;;;;16.02;1.40;;;3.00;99.90;;;;;;6341523;22;20054;-29
2024/01/31 06:44:00;;;;;;;6.70;1.13;;;3.00;99.90;;;;;;6313149;22;20022;-28
2024/01/31 06:46:26;;;;;;;9.48;1.10;;;3.00;99.90;;;;;;6340684;22;20007;-28
2024/01/31 06:48:52;;;;;;;9.82;1.73;;;3.10;99.90;;;;;;6340651;22;20026;-28
2024/01/31 06:51:17;;;;;;;15.23;1.52;;;3.20;99.90;;;;;;6313388;22;20083;-28
2024/01/31 06:53:44;;;;;;;4.05;0.65;;;3.20;99.90;;;;;;6340715;22;20061;-28
2024/01/31 06:56:16;;;;;;;4.28;1.13;;;3.20;99.90;;;;;;6313450;22;20011;-29
2024/01/31 06:58:46;;;;;;;7.32;1.00;;;3.20;99.90;;;;;;6341084;22;20113;-28
2024/01/31 07:01:16;;;;;;;7.22;1.35;;;3.20;99.90;;;;;;6340614;22;20031;-28
2024/01/31 07:03:42;;;;;;;7.95;1.27;;;3.20;99.90;;;;;;6314065;22;20327;-29
2024/01/31 07:06:09;;;;;;;8.68;1.33;;;3.30;99.90;;;;;;6287227;22;20014;-28
2024/01/31 07:08:35;;;;;;;7.00;1.15;;;3.30;99.90;;;;;;6340513;22;20019;-28
2024/01/31 07:11:00;;;;;;;12.63;1.60;;;3.40;99.90;;;;;;6313031;22;20102;-28
2024/01/31 07:13:26;;;;;;;7.28;1.55;;;3.40;99.90;;;;;;6314005;22;20010;-28
2024/01/31 07:15:52;;;;;;;7.38;1.50;;;3.60;99.90;;;;;;6313386;22;20021;-28
2024/01/31 07:18:18;;;;;;;11.23;1.52;;;3.70;99.90;;;;;;6341122;22;20067;-28
2024/01/31 07:20:43;;;;;;;13.80;1.42;;;3.80;99.90;;;;;;6340417;22;20026;-28
2024/01/31 07:23:09;;;;;;;8.18;1.98;;;3.80;99.90;;;;;;6340403;22;20021;-27
2024/01/31 07:25:38;;;;;;;7.13;0.90;;;3.70;99.90;;;;;;6340307;22;20021;-29
2024/01/31 07:28:05;;;;;;;8.35;1.15;;;3.70;99.90;;;;;;6340714;22;20051;-28
2024/01/31 07:30:30;;;;;;;7.90;0.98;;;3.70;99.90;;;;;;6340331;22;20015;-28
2024/01/31 07:32:56;;;;;;;11.95;2.20;;;3.70;99.90;;;;;;6341320;22;20049;-28
2024/01/31 07:35:24;;;;;;;7.90;1.17;;;3.70;99.90;;;;;;6340143;22;20382;-29
2024/01/31 07:37:50;;;;;;;4.45;1.20;;;3.70;99.90;;;;;;6313314;22;20331;-29
2024/01/31 07:40:16;;;;;;;7.38;1.27;;;3.70;99.90;;;;;;6312787;22;20026;-28
2024/01/31 07:42:41;;;;;;;14.77;1.70;;;3.70;99.90;;;;;;6340728;22;20011;-28
2024/01/31 07:45:08;;;;;;;7.57;2.08;;;3.70;99.90;;;;;;6340254;22;20029;-28
2024/01/31 07:47:36;;;;;;;6.40;1.65;;;3.70;99.90;;;;;;6313422;22;20430;-28
2024/01/31 07:50:04;;;;;;;7.00;1.60;;;3.80;99.90;;;;;;6340193;22;20375;-29
2024/01/31 07:52:30;;;;;;;7.22;1.70;;;3.90;99.90;;;;;;6339870;22;20458;-28
2024/01/31 07:54:56;;;;;;;5.22;1.85;;;3.80;99.90;;;;;;6340095;22;20018;-28
2024/01/31 07:57:21;;;;;;;3.63;1.58;;;3.90;99.90;;;;;;6287083;22;20007;-28
2024/01/31 07:59:47;;;;;;;5.63;1.83;;;3.90;99.90;;;;;;6312787;22;20461;-29
2024/01/31 08:02:14;;;;;;;9.77;1.77;;;3.90;99.90;;;;;;6312484;22;20026;-29
2024/01/31 08:04:39;;;;;;;4.20;1.77;;;4.00;99.90;;;;;;6340113;22;20015;-28
2024/01/31 08:07:05;;;;;;;6.82;1.73;;;3.90;99.90;;;;;;6339920;22;20431;-28
2024/01/31 08:09:31;;;;;;;6.68;1.80;;;3.90;99.90;;;;;;6340719;22;20014;-28
2024/01/31 08:11:56;;;;;;;7.95;1.90;;;4.30;99.90;;;;;;6287001;22;20050;-28
2024/01/31 08:14:22;;;;;;;7.65;2.03;;;4.00;99.90;;;;;;6339973;22;20343;-28
2024/01/31 08:16:51;;;;;;;8.82;1.77;;;3.90;99.90;;;;;;6339966;22;20010;-28
2024/01/31 08:19:17;;;;;;;6.05;1.83;;;3.90;99.90;;;;;;6340630;22;20056;-29
2024/01/31 08:21:43;;;;;;;5.70;2.00;;;3.90;99.90;;;;;;6339921;22;20015;-29
2024/01/31 08:24:09;;;;;;;6.40;1.70;;;4.00;99.90;;;;;;6312541;22;20098;-28
2024/01/31 08:26:34;;;;;;;7.25;1.98;;;4.00;99.90;;;;;;6339897;22;20022;-28
2024/01/31 08:29:00;;;;;;;5.55;2.30;;;4.00;99.90;;;;;;6312460;22;20018;-28
2024/01/31 08:31:26;;;;;;;9.00;2.30;;;4.00;99.90;;;;;;6339879;22;20050;-29
2024/01/31 08:33:51;;;;;;;7.30;2.10;;;4.00;99.90;;;;;;6312187;22;20308;-29
2024/01/31 08:36:17;;;;;;;6.53;2.40;;;4.10;99.90;;;;;;6313031;22;20022;-28
2024/01/31 08:38:43;;;;;;;7.80;2.83;;;4.10;99.90;;;;;;6339348;22;20023;-29
2024/01/31 08:41:12;;;;;;;6.45;2.30;;;4.10;99.90;;;;;;6339966;22;20019;-28
2024/01/31 08:43:38;;;;;;;5.03;2.40;;;4.30;99.90;;;;;;6312095;22;20021;-27
2024/01/31 08:46:03;;;;;;;3.85;2.50;;;4.20;99.90;;;;;;6310949;22;20093;-29
2024/01/31 08:48:29;;;;;;;9.40;3.08;;;4.30;99.90;;;;;;6340294;22;20018;-27
2024/01/31 08:50:57;;;;;;;6.45;3.20;;;4.40;99.90;;;;;;6339751;22;20023;-27
2024/01/31 08:53:23;;;;;;;6.03;3.03;;;4.40;99.90;;;;;;6339706;22;20027;-28
2024/01/31 08:55:49;;;;;;;6.90;3.38;;;4.50;99.90;;;;;;6311989;22;20019;-28
2024/01/31 08:58:14;;;;;;;7.35;3.42;;;4.50;99.90;;;;;;6313018;22;20091;-27
2024/01/31 09:00:40;;;;;;;9.00;3.78;;;4.50;99.90;;;;;;6339920;22;20021;-29
2024/01/31 09:03:06;;;;;;;6.53;3.92;;;4.60;99.90;;;;;;6339569;22;20038;-28
2024/01/31 09:05:31;;;;;;;4.32;3.40;;;4.60;99.90;;;;;;6339599;22;20022;-28
2024/01/31 09:07:59;;;;;;;5.80;3.45;;;4.60;99.90;;;;;;6339418;22;20014;-27
2024/01/31 09:10:26;;;;;;;6.22;3.58;;;4.70;99.90;;;;;;6311875;22;20027;-28
2024/01/31 09:12:53;;;;;;;5.47;3.90;;;4.60;99.90;;;;;;6312942;22;20376;-28
2024/01/31 09:15:19;;;;;;;8.00;4.07;;;4.70;99.90;;;;;;6339547;22;20064;-28
2024/01/31 09:17:46;;;;;;;10.88;4.38;;;4.70;99.90;;;;;;6339505;22;20015;-28
2024/01/31 09:20:12;;;;;;;7.22;3.58;;;4.80;99.90;;;;;;6261036;22;20030;-28
2024/01/31 09:22:38;;;;;;;8.73;4.55;;;4.80;99.90;;;;;;6339455;22;20015;-27
2024/01/31 09:25:06;;;;;;;10.52;4.38;;;4.80;99.90;;;;;;6312844;22;20080;-28
2024/01/31 09:27:32;;;;;;;5.82;4.28;;;4.80;99.90;;;;;;6340301;22;20040;-28
2024/01/31 09:29:58;;;;;;;7.57;5.05;;;4.80;99.90;;;;;;6311668;22;20058;-28
2024/01/31 09:32:23;;;;;;;8.27;4.88;;;4.90;99.90;;;;;;6339383;22;20322;-28
2024/01/31 09:34:49;;;;;;;6.68;4.95;;;4.90;99.90;;;;;;6340681;22;20057;-28
2024/01/31 09:37:15;;;;;;;6.97;5.25;;;5.00;99.90;;;;;;6339393;22;20442;-28
2024/01/31 09:39:41;;;;;;;9.25;4.55;;;5.00;99.90;;;;;;6311809;22;20022;-27
2024/01/31 09:42:07;;;;;;;9.95;5.20;;;5.00;99.90;;;;;;6311522;22;20433;-28
2024/01/31 09:44:34;;;;;;;7.82;5.85;;;5.00;99.90;;;;;;6311675;22;20427;-28
2024/01/31 09:47:01;;;;;;;8.15;5.63;;;5.00;99.90;;;;;;6338997;22;20015;-28
2024/01/31 09:49:27;;;;;;;8.18;6.32;;;5.10;99.90;;;;;;6336630;22;20401;-28
2024/01/31 09:52:02;;;;;;;7.28;5.90;;;5.10;99.90;;;;;;6338823;22;20057;-28
2024/01/31 09:54:28;;;;;;;7.68;5.40;;;5.10;99.90;;;;;;6339218;22;20461;-29
2024/01/31 09:56:55;;;;;;;15.35;6.95;;;5.10;99.90;;;;;;6339258;22;20011;-27
2024/01/31 09:59:21;;;;;;;9.55;6.25;;;5.10;99.90;;;;;;6312731;22;20014;-28
2024/01/31 10:01:50;;;;;;;10.35;6.55;;;5.20;99.90;;;;;;6340815;22;20071;-28
2024/01/31 10:04:16;;;;;;;16.15;7.07;;;5.20;99.90;;;;;;6341095;22;20024;-28
2024/01/31 10:06:43;;;;;;;9.38;6.60;;;5.20;99.90;;;;;;6341086;22;20086;-27
2024/01/31 10:09:09;;;;;;;9.95;6.80;;;5.30;99.90;;;;;;6341065;22;20015;-28
2024/01/31 10:11:35;;;;;;;10.52;8.00;;;5.30;99.90;;;;;;6313561;22;20462;-27
2024/01/31 10:14:01;;;;;;;10.13;7.57;;;5.40;99.90;;;;;;6340875;22;20026;-28
2024/01/31 10:16:26;;;;;;;9.30;6.82;;;5.40;99.90;;;;;;6342396;22;20516;-29
2024/01/31 10:18:52;;;;;;;14.02;7.15;;;5.50;99.90;;;;;;6313698;22;20331;-28
2024/01/31 10:21:19;;;;;;;12.50;7.72;;;5.50;99.90;;;;;;6341984;22;20023;-28
2024/01/31 10:23:56;;;;;;;8.85;7.20;;;5.40;99.90;;;;;;6341017;22;20026;-28
2024/01/31 10:26:22;;;;;;;10.63;7.95;;;5.50;99.90;;;;;;6341321;22;20431;-28
2024/01/31 10:28:48;;;;;;;9.75;7.25;;;5.60;99.90;;;;;;6340814;22;20018;-27
2024/01/31 10:31:14;;;;;;;10.70;6.20;;;5.70;99.90;;;;;;6313449;22;20019;-27
2024/01/31 10:33:40;;;;;;;11.55;7.32;;;5.70;99.90;;;;;;6313678;22;20014;-28
2024/01/31 10:36:08;;;;;;;8.48;5.80;;;5.70;99.90;;;;;;6313565;22;20097;-28
2024/01/31 10:38:34;;;;;;;9.30;6.97;;;5.70;99.90;;;;;;6340803;22;20015;-29
2024/01/31 10:41:00;;;;;;;9.10;6.75;;;5.90;99.90;;;;;;6287689;22;20097;-27
2024/01/31 10:43:27;;;;;;;10.75;7.20;;;5.80;99.90;;;;;;6340649;22;20015;-27
2024/01/31 10:45:52;;;;;;;11.35;6.30;;;5.80;99.90;;;;;;6340517;22;20057;-28
2024/01/31 10:48:18;;;;;;;9.52;6.75;;;5.90;99.90;;;;;;6341108;22;20019;-28
2024/01/31 10:50:44;;;;;;;8.60;6.03;;;6.00;99.90;;;;;;6341400;22;20015;-28
2024/01/31 10:53:11;;;;;;;9.38;6.22;;;5.80;99.90;;;;;;6313126;22;20022;-28
2024/01/31 10:55:38;;;;;;;8.25;5.90;;;5.90;99.90;;;;;;6313283;22;20019;-27
2024/01/31 10:58:04;;;;;;;9.15;6.03;;;5.80;99.90;;;;;;6340651;22;20014;-28
2024/01/31 11:00:30;;;;;;;9.10;6.47;;;5.80;99.90;;;;;;6340914;22;20022;-28
2024/01/31 11:02:57;;;;;;;10.93;6.07;;;5.80;99.90;;;;;;6340640;22;20316;-28
2024/01/31 11:05:26;;;;;;;7.75;5.32;;;5.90;99.90;;;;;;6313419;22;20037;-29
2024/01/31 11:07:51;;;;;;;9.48;6.63;;;5.80;99.90;;;;;;6313785;22;20022;-28
2024/01/31 11:10:22;;;;;;;6.85;5.30;;;5.80;99.90;;;;;;6340521;22;20019;-27
2024/01/31 11:13:05;;;;;;;8.60;6.00;;;5.80;99.90;;;;;;6339763;22;20076;-27
2024/01/31 11:15:34;;;;;;;7.90;6.25;;;5.80;99.90;;;;;;6313378;22;20323;-27
2024/01/31 11:18:09;;;;;;;8.45;5.88;;;5.80;99.90;;;;;;6287000;22;20023;-28
2024/01/31 11:20:40;;;;;;;8.65;6.47;;;5.90;99.90;;;;;;6313023;22;20023;-27
2024/01/31 11:23:06;;;;;;;7.57;5.47;;;5.90;99.90;;;;;;6341102;22;20018;-27
2024/01/31 11:25:34;;;;;;;7.75;4.70;;;5.90;99.90;;;;;;6312913;22;20075;-28
2024/01/31 11:28:01;;;;;;;7.82;5.50;;;5.80;99.90;;;;;;6341298;22;20014;-28
2024/01/31 11:30:27;;;;;;;8.95;6.05;;;5.90;99.90;;;;;;6312877;22;20019;-28
2024/01/31 11:32:53;;;;;;;6.82;4.70;;;6.00;99.90;;;;;;6313837;22;20053;-27
2024/01/31 11:35:18;;;;;;;6.63;4.88;;;5.90;99.90;;;;;;6340219;22;20057;-27
2024/01/31 11:37:44;;;;;;;8.05;5.15;;;6.00;99.90;;;;;;6339932;22;20015;-27
2024/01/31 11:40:11;;;;;;;7.07;5.20;;;5.90;99.90;;;;;;6339718;22;20022;-28
2024/01/31 11:42:37;;;;;;;8.07;4.93;;;6.00;99.90;;;;;;6312862;22;20059;-28
2024/01/31 11:45:03;;;;;;;8.20;5.13;;;6.00;99.90;;;;;;6340159;22;20014;-27
2024/01/31 11:47:28;;;;;;;6.90;4.47;;;5.90;99.90;;;;;;6312354;22;20018;-28
2024/01/31 11:50:04;;;;;;;5.10;4.10;;;6.00;99.90;;;;;;6313027;22;20030;-28
2024/01/31 11:52:32;;;;;;;5.72;4.43;;;6.00;99.90;;;;;;6340219;22;20054;-27
2024/01/31 11:54:58;;;;;;;7.68;5.25;;;6.00;99.90;;;;;;6340149;22;20072;-27
2024/01/31 11:57:26;;;;;;;4.82;3.45;;;6.10;99.90;;;;;;6340775;22;20011;-27
2024/01/31 11:59:52;;;;;;;7.60;3.83;;;6.00;99.90;;;;;;6312429;22;20011;-27
2024/01/31 12:02:18;;;;;;;5.45;3.97;;;6.10;99.90;;;;;;6313535;22;20051;-27
2024/01/31 12:04:55;;;;;;;5.80;4.03;;;6.00;99.90;;;;;;6262093;22;20491;-27
2024/01/31 12:07:21;;;;;;;6.40;4.20;;;6.10;99.90;;;;;;6340695;22;20015;-28
2024/01/31 12:09:47;;;;;;;9.27;3.95;;;6.10;99.90;;;;;;6339981;22;20064;-29
2024/01/31 12:12:13;;;;;;;8.48;4.90;;;6.00;99.90;;;;;;6339985;22;20089;-28
2024/01/31 12:14:42;;;;;;;8.10;4.82;;;6.00;99.90;;;;;;6339926;22;20015;-27
2024/01/31 12:17:21;;;;;;;4.95;4.05;;;6.00;99.90;;;;;;6312291;22;20026;-27
2024/01/31 12:19:47;;;;;;;8.07;4.88;;;6.00;99.90;;;;;;6312289;22;20021;-27
2024/01/31 12:22:13;;;;;;;7.05;4.70;;;6.00;99.90;;;;;;6313296;22;20046;-29
2024/01/31 12:24:38;;;;;;;5.68;4.45;;;6.00;99.90;;;;;;6286529;22;20103;-27
2024/01/31 12:27:04;;;;;;;9.73;4.60;;;6.00;99.90;;;;;;6340750;22;20086;-27
2024/01/31 12:29:31;;;;;;;9.00;5.00;;;6.00;99.90;;;;;;6339835;22;20519;-28
2024/01/31 12:31:57;;;;;;;7.00;4.93;;;6.00;99.90;;;;;;6312217;22;20019;-28
2024/01/31 12:34:23;;;;;;;17.08;5.70;;;6.00;99.90;;;;;;6313220;22;20334;-28
2024/01/31 12:36:49;;;;;;;6.05;4.43;;;6.00;99.90;;;;;;6339862;22;20308;-28
2024/01/31 12:39:19;;;;;;;6.32;4.75;;;6.10;99.90;;;;;;6339769;22;20304;-27
2024/01/31 12:41:45;;;;;;;9.25;5.30;;;6.00;99.90;;;;;;6339794;22;20026;-27
2024/01/31 12:44:11;;;;;;;6.97;5.38;;;6.10;99.90;;;;;;6339840;22;20014;-27
2024/01/31 12:46:41;;;;;;;6.47;5.00;;;6.10;99.90;;;;;;6306394;22;20022;-27
2024/01/31 12:49:07;;;;;;;6.43;4.45;;;6.10;99.90;;;;;;6308781;22;20156;-27
2024/01/31 12:51:33;;;;;;;4.68;3.60;;;6.10;99.90;;;;;;6308504;22;20458;-27